Aviation Digital Data Service (ADDS)

Output produced by TAFs form (2038 UTC 31 October 2014)
found at http://aviationweather.gov/adds/tafs/
 
KLND 311729Z 3118/0118 VRB05KT P6SM SCT130 BKN200 
     FM311900 18008KT P6SM SCT130 BKN200 
     FM010500 24012KT P6SM SCT090 BKN150